This is the latest recevied weather packets stored in our database for station/object N6GPM. If no packets are shown the sender has not sent any weather packets the latest 10 day(s).
| Time | Temp. | Humidity | Pressure | Rain* | Wind** | Luminosity | Snow |
|---|---|---|---|---|---|---|---|
| 1777924315 | 15.56° C | 58% | 1019.2 hPa | 0 mm | - | 276 W/m² | - |
| 1777924013 | 15.56° C | 57% | 1019.2 hPa | 0 mm | - | 281 W/m² | - |
| 1777923708 | 16.11° C | 58% | 1018.8 hPa | 0 mm | - | 294 W/m² | - |
| 1777923405 | 16.11° C | 59% | 1019.2 hPa | 0 mm | - | 296 W/m² | - |
| 1777923103 | 16.11° C | 59% | 1019 hPa | 0 mm | - | 307 W/m² | - |
| 1777922801 | 15.56° C | 60% | 1019.2 hPa | 0 mm | - | 328 W/m² | - |
| 1777922499 | 15.56° C | 59% | 1019 hPa | 0 mm | - | 326 W/m² | - |
| 1777922197 | 15.56° C | 60% | 1019.2 hPa | 0 mm | - | 361 W/m² | - |
| 1777921893 | 15.56° C | 60% | 1019.4 hPa | 0 mm | - | 299 W/m² | - |
| 1777921589 | 15.56° C | 61% | 1019.4 hPa | 0 mm | - | 242 W/m² | - |
| 1777921286 | 15.56° C | 61% | 1019 hPa | 0 mm | - | 170 W/m² | - |
| 1777920982 | 15.56° C | 60% | 1019.2 hPa | 0 mm | - | 129 W/m² | - |
| 1777920679 | 15.56° C | 59% | 1019.3 hPa | 0 mm | - | 137 W/m² | - |
| 1777920375 | 15.56° C | 60% | 1019 hPa | 0 mm | - | 169 W/m² | - |
| 1777920070 | 15.56° C | 59% | 1019.3 hPa | 0 mm | - | 230 W/m² | - |
| 1777919767 | 15.56° C | 57% | 1018.8 hPa | 0 mm | - | 351 W/m² | - |
| 1777919465 | 15.56° C | 57% | 1018.8 hPa | 0 mm | - | 275 W/m² | - |
| 1777919162 | 15° C | 59% | 1019.4 hPa | 0 mm | - | 308 W/m² | - |
| 1777918860 | 15° C | 60% | 1019.2 hPa | 0 mm | - | 274 W/m² | - |
| 1777918556 | 16.11° C | 58% | 1019 hPa | 0 mm | - | 196 W/m² | - |
| 1777918254 | 16.11° C | 58% | 1019.3 hPa | 0 mm | - | 196 W/m² | - |
| 1777917953 | 16.67° C | 55% | 1019.4 hPa | 0 mm | - | 246 W/m² | - |
| 1777917652 | 16.67° C | 58% | 1019.2 hPa | 0 mm | - | 330 W/m² | - |
| 1777917349 | 16.11° C | 59% | 1019.2 hPa | 0 mm | - | 909 W/m² | - |
| 1777917045 | 15.56° C | 63% | 1019.2 hPa | 0 mm | - | 563 W/m² | - |
* Rain latest hour (hover to see other rain measurements)
** Current wind speed in m/s (hover to see current wind gust speed)